sensor_id;sensor_type;location;lat;lon;timestamp;P1;durP1;ratioP1;P2;durP2;ratioP2
65831;SDS011;52593;42.648;23.332;2022-11-18T00:01:45;18.45;;;9.05;;
65831;SDS011;52593;42.648;23.332;2022-11-18T00:04:11;18.97;;;9.10;;
65831;SDS011;52593;42.648;23.332;2022-11-18T00:06:36;19.65;;;9.45;;
65831;SDS011;52593;42.648;23.332;2022-11-18T00:09:02;17.73;;;8.97;;
65831;SDS011;52593;42.648;23.332;2022-11-18T00:11:28;20.37;;;9.07;;
65831;SDS011;52593;42.648;23.332;2022-11-18T00:14:16;18.15;;;9.00;;
65831;SDS011;52593;42.648;23.332;2022-11-18T00:16:51;17.15;;;8.48;;
65831;SDS011;52593;42.648;23.332;2022-11-18T00:19:21;18.23;;;9.25;;
65831;SDS011;52593;42.648;23.332;2022-11-18T00:21:48;18.30;;;9.07;;
65831;SDS011;52593;42.648;23.332;2022-11-18T00:24:14;18.90;;;9.77;;
65831;SDS011;52593;42.648;23.332;2022-11-18T00:26:39;20.50;;;10.03;;
65831;SDS011;52593;42.648;23.332;2022-11-18T00:29:05;20.17;;;9.00;;
65831;SDS011;52593;42.648;23.332;2022-11-18T00:31:30;20.23;;;9.57;;
65831;SDS011;52593;42.648;23.332;2022-11-18T00:33:56;21.65;;;9.95;;
65831;SDS011;52593;42.648;23.332;2022-11-18T00:36:21;26.43;;;12.80;;
65831;SDS011;52593;42.648;23.332;2022-11-18T00:38:46;25.50;;;11.70;;
65831;SDS011;52593;42.648;23.332;2022-11-18T00:41:12;21.73;;;10.80;;
65831;SDS011;52593;42.648;23.332;2022-11-18T00:43:39;27.08;;;11.75;;
65831;SDS011;52593;42.648;23.332;2022-11-18T00:46:06;24.60;;;10.55;;
65831;SDS011;52593;42.648;23.332;2022-11-18T00:48:33;24.83;;;10.45;;
65831;SDS011;52593;42.648;23.332;2022-11-18T00:51:06;18.23;;;9.67;;
65831;SDS011;52593;42.648;23.332;2022-11-18T00:53:31;19.80;;;9.25;;
65831;SDS011;52593;42.648;23.332;2022-11-18T00:55:57;20.70;;;9.10;;
65831;SDS011;52593;42.648;23.332;2022-11-18T00:58:22;17.37;;;9.20;;
65831;SDS011;52593;42.648;23.332;2022-11-18T01:00:49;22.33;;;9.03;;
65831;SDS011;52593;42.648;23.332;2022-11-18T01:03:16;20.40;;;9.50;;
65831;SDS011;52593;42.648;23.332;2022-11-18T01:05:42;17.63;;;9.52;;
65831;SDS011;52593;42.648;23.332;2022-11-18T01:08:08;20.27;;;8.90;;
65831;SDS011;52593;42.648;23.332;2022-11-18T01:10:35;18.33;;;9.07;;
65831;SDS011;52593;42.648;23.332;2022-11-18T01:13:02;17.90;;;8.57;;
65831;SDS011;52593;42.648;23.332;2022-11-18T01:15:45;19.83;;;9.10;;
65831;SDS011;52593;42.648;23.332;2022-11-18T01:18:10;17.67;;;8.53;;
65831;SDS011;52593;42.648;23.332;2022-11-18T01:20:36;19.90;;;8.88;;
65831;SDS011;52593;42.648;23.332;2022-11-18T01:23:02;21.23;;;8.87;;
65831;SDS011;52593;42.648;23.332;2022-11-18T01:25:27;18.85;;;8.68;;
65831;SDS011;52593;42.648;23.332;2022-11-18T01:27:53;15.93;;;7.57;;
65831;SDS011;52593;42.648;23.332;2022-11-18T01:30:18;17.27;;;8.60;;
65831;SDS011;52593;42.648;23.332;2022-11-18T01:32:44;18.10;;;7.83;;
65831;SDS011;52593;42.648;23.332;2022-11-18T01:35:10;15.70;;;8.13;;
65831;SDS011;52593;42.648;23.332;2022-11-18T01:37:36;18.63;;;9.00;;
65831;SDS011;52593;42.648;23.332;2022-11-18T01:40:03;17.65;;;8.48;;
65831;SDS011;52593;42.648;23.332;2022-11-18T01:42:30;18.48;;;8.80;;
65831;SDS011;52593;42.648;23.332;2022-11-18T01:44:56;20.47;;;8.90;;
65831;SDS011;52593;42.648;23.332;2022-11-18T01:47:22;18.98;;;9.18;;
65831;SDS011;52593;42.648;23.332;2022-11-18T01:49:51;17.10;;;8.07;;
65831;SDS011;52593;42.648;23.332;2022-11-18T01:52:17;18.30;;;8.80;;
65831;SDS011;52593;42.648;23.332;2022-11-18T01:54:43;17.20;;;8.23;;
65831;SDS011;52593;42.648;23.332;2022-11-18T01:57:16;17.83;;;8.20;;
65831;SDS011;52593;42.648;23.332;2022-11-18T01:59:46;19.05;;;8.85;;
65831;SDS011;52593;42.648;23.332;2022-11-18T02:02:14;18.63;;;8.75;;
65831;SDS011;52593;42.648;23.332;2022-11-18T02:04:41;19.05;;;9.55;;
65831;SDS011;52593;42.648;23.332;2022-11-18T02:07:10;18.60;;;9.07;;
65831;SDS011;52593;42.648;23.332;2022-11-18T02:09:37;19.73;;;9.00;;
65831;SDS011;52593;42.648;23.332;2022-11-18T02:12:03;19.05;;;8.90;;
65831;SDS011;52593;42.648;23.332;2022-11-18T02:14:34;21.98;;;8.93;;
65831;SDS011;52593;42.648;23.332;2022-11-18T02:17:16;18.25;;;9.18;;
65831;SDS011;52593;42.648;23.332;2022-11-18T02:34:23;21.63;;;9.57;;
65831;SDS011;52593;42.648;23.332;2022-11-18T02:39:21;21.83;;;9.50;;
65831;SDS011;52593;42.648;23.332;2022-11-18T02:41:54;18.73;;;9.07;;
65831;SDS011;52593;42.648;23.332;2022-11-18T02:44:20;22.15;;;9.20;;
65831;SDS011;52593;42.648;23.332;2022-11-18T02:46:51;20.57;;;9.03;;
65831;SDS011;52593;42.648;23.332;2022-11-18T02:49:20;20.85;;;9.52;;
65831;SDS011;52593;42.648;23.332;2022-11-18T02:52:07;20.35;;;9.25;;
65831;SDS011;52593;42.648;23.332;2022-11-18T02:54:34;20.42;;;9.40;;
65831;SDS011;52593;42.648;23.332;2022-11-18T02:57:03;20.70;;;9.35;;
65831;SDS011;52593;42.648;23.332;2022-11-18T02:59:29;21.93;;;9.63;;
65831;SDS011;52593;42.648;23.332;2022-11-18T03:01:54;20.02;;;9.50;;
65831;SDS011;52593;42.648;23.332;2022-11-18T03:04:20;22.17;;;9.47;;
65831;SDS011;52593;42.648;23.332;2022-11-18T03:06:48;22.27;;;9.15;;
65831;SDS011;52593;42.648;23.332;2022-11-18T03:09:37;19.67;;;9.63;;
65831;SDS011;52593;42.648;23.332;2022-11-18T03:14:58;19.80;;;9.55;;
65831;SDS011;52593;42.648;23.332;2022-11-18T03:22:38;17.23;;;8.73;;
65831;SDS011;52593;42.648;23.332;2022-11-18T03:25:13;18.37;;;9.67;;
65831;SDS011;52593;42.648;23.332;2022-11-18T03:31:07;17.38;;;8.35;;
65831;SDS011;52593;42.648;23.332;2022-11-18T03:33:36;19.10;;;8.82;;
65831;SDS011;52593;42.648;23.332;2022-11-18T03:36:06;23.50;;;8.98;;
65831;SDS011;52593;42.648;23.332;2022-11-18T03:38:53;18.50;;;8.53;;
65831;SDS011;52593;42.648;23.332;2022-11-18T03:41:22;17.55;;;8.60;;
65831;SDS011;52593;42.648;23.332;2022-11-18T03:43:52;21.52;;;9.13;;
65831;SDS011;52593;42.648;23.332;2022-11-18T03:46:23;20.85;;;8.25;;
65831;SDS011;52593;42.648;23.332;2022-11-18T03:49:03;20.48;;;8.98;;
65831;SDS011;52593;42.648;23.332;2022-11-18T03:51:34;19.37;;;8.43;;
65831;SDS011;52593;42.648;23.332;2022-11-18T03:54:18;18.38;;;8.38;;
65831;SDS011;52593;42.648;23.332;2022-11-18T03:56:48;19.30;;;8.43;;
65831;SDS011;52593;42.648;23.332;2022-11-18T04:00:08;20.08;;;8.82;;
65831;SDS011;52593;42.648;23.332;2022-11-18T04:02:35;18.10;;;8.55;;
65831;SDS011;52593;42.648;23.332;2022-11-18T04:05:02;18.33;;;7.93;;
65831;SDS011;52593;42.648;23.332;2022-11-18T04:07:31;19.10;;;9.05;;
65831;SDS011;52593;42.648;23.332;2022-11-18T04:10:10;26.35;;;12.43;;
65831;SDS011;52593;42.648;23.332;2022-11-18T04:12:58;20.02;;;9.10;;
65831;SDS011;52593;42.648;23.332;2022-11-18T04:15:29;19.98;;;9.88;;
65831;SDS011;52593;42.648;23.332;2022-11-18T04:17:55;20.67;;;8.70;;
65831;SDS011;52593;42.648;23.332;2022-11-18T04:20:21;20.42;;;9.52;;
65831;SDS011;52593;42.648;23.332;2022-11-18T04:22:47;20.97;;;10.03;;
65831;SDS011;52593;42.648;23.332;2022-11-18T04:25:12;22.08;;;9.18;;
65831;SDS011;52593;42.648;23.332;2022-11-18T04:27:38;20.67;;;9.70;;
65831;SDS011;52593;42.648;23.332;2022-11-18T04:30:04;20.08;;;10.07;;
65831;SDS011;52593;42.648;23.332;2022-11-18T04:32:30;22.93;;;9.73;;
65831;SDS011;52593;42.648;23.332;2022-11-18T04:34:56;22.42;;;9.82;;
65831;SDS011;52593;42.648;23.332;2022-11-18T04:37:21;21.37;;;9.63;;
65831;SDS011;52593;42.648;23.332;2022-11-18T04:39:47;27.07;;;13.33;;
65831;SDS011;52593;42.648;23.332;2022-11-18T04:42:12;28.45;;;14.10;;
65831;SDS011;52593;42.648;23.332;2022-11-18T04:44:38;25.03;;;12.23;;
65831;SDS011;52593;42.648;23.332;2022-11-18T04:47:03;24.40;;;11.87;;
65831;SDS011;52593;42.648;23.332;2022-11-18T04:49:30;21.42;;;10.40;;
65831;SDS011;52593;42.648;23.332;2022-11-18T04:51:56;23.30;;;10.95;;
65831;SDS011;52593;42.648;23.332;2022-11-18T04:54:23;43.37;;;10.83;;
65831;SDS011;52593;42.648;23.332;2022-11-18T04:56:49;34.35;;;12.32;;
65831;SDS011;52593;42.648;23.332;2022-11-18T04:59:16;33.57;;;13.70;;
65831;SDS011;52593;42.648;23.332;2022-11-18T05:01:43;46.78;;;14.65;;
65831;SDS011;52593;42.648;23.332;2022-11-18T05:04:11;51.07;;;15.50;;
65831;SDS011;52593;42.648;23.332;2022-11-18T05:06:40;45.83;;;15.63;;
65831;SDS011;52593;42.648;23.332;2022-11-18T05:09:06;55.47;;;15.73;;
65831;SDS011;52593;42.648;23.332;2022-11-18T05:11:32;46.57;;;16.63;;
65831;SDS011;52593;42.648;23.332;2022-11-18T05:14:16;46.50;;;17.15;;
65831;SDS011;52593;42.648;23.332;2022-11-18T05:16:41;53.10;;;16.20;;
65831;SDS011;52593;42.648;23.332;2022-11-18T05:19:07;74.43;;;17.98;;
65831;SDS011;52593;42.648;23.332;2022-11-18T05:21:33;68.50;;;17.97;;
65831;SDS011;52593;42.648;23.332;2022-11-18T05:23:59;58.47;;;18.63;;
65831;SDS011;52593;42.648;23.332;2022-11-18T05:26:25;72.95;;;18.88;;
65831;SDS011;52593;42.648;23.332;2022-11-18T05:28:51;56.97;;;17.63;;
65831;SDS011;52593;42.648;23.332;2022-11-18T05:31:16;59.80;;;18.67;;
65831;SDS011;52593;42.648;23.332;2022-11-18T05:33:42;58.60;;;19.77;;
65831;SDS011;52593;42.648;23.332;2022-11-18T05:36:10;65.72;;;19.42;;
65831;SDS011;52593;42.648;23.332;2022-11-18T05:38:38;66.82;;;19.83;;
65831;SDS011;52593;42.648;23.332;2022-11-18T05:41:03;60.22;;;19.00;;
65831;SDS011;52593;42.648;23.332;2022-11-18T05:43:30;59.08;;;19.80;;
65831;SDS011;52593;42.648;23.332;2022-11-18T05:45:56;58.93;;;18.00;;
65831;SDS011;52593;42.648;23.332;2022-11-18T05:48:22;48.00;;;16.75;;
65831;SDS011;52593;42.648;23.332;2022-11-18T05:50:48;45.55;;;15.88;;
65831;SDS011;52593;42.648;23.332;2022-11-18T05:53:16;57.72;;;17.90;;
65831;SDS011;52593;42.648;23.332;2022-11-18T05:55:44;50.97;;;15.93;;
65831;SDS011;52593;42.648;23.332;2022-11-18T05:58:20;45.00;;;16.48;;
65831;SDS011;52593;42.648;23.332;2022-11-18T06:00:46;51.53;;;16.77;;
65831;SDS011;52593;42.648;23.332;2022-11-18T06:03:17;56.47;;;17.35;;
65831;SDS011;52593;42.648;23.332;2022-11-18T06:05:45;43.30;;;15.90;;
65831;SDS011;52593;42.648;23.332;2022-11-18T06:08:12;45.33;;;16.10;;
65831;SDS011;52593;42.648;23.332;2022-11-18T06:10:42;40.55;;;16.05;;
65831;SDS011;52593;42.648;23.332;2022-11-18T06:13:10;43.63;;;19.17;;
65831;SDS011;52593;42.648;23.332;2022-11-18T06:15:41;47.42;;;18.92;;
65831;SDS011;52593;42.648;23.332;2022-11-18T06:18:15;56.63;;;21.03;;
65831;SDS011;52593;42.648;23.332;2022-11-18T06:20:46;52.15;;;18.88;;
65831;SDS011;52593;42.648;23.332;2022-11-18T06:23:11;50.22;;;17.08;;
65831;SDS011;52593;42.648;23.332;2022-11-18T06:25:37;47.43;;;17.63;;
65831;SDS011;52593;42.648;23.332;2022-11-18T06:28:04;48.22;;;18.80;;
65831;SDS011;52593;42.648;23.332;2022-11-18T06:30:30;41.83;;;18.13;;
65831;SDS011;52593;42.648;23.332;2022-11-18T06:32:55;45.30;;;18.17;;
65831;SDS011;52593;42.648;23.332;2022-11-18T06:35:20;48.13;;;18.40;;
65831;SDS011;52593;42.648;23.332;2022-11-18T06:37:46;54.80;;;18.63;;
65831;SDS011;52593;42.648;23.332;2022-11-18T06:40:11;44.13;;;17.53;;
65831;SDS011;52593;42.648;23.332;2022-11-18T06:42:37;56.92;;;17.73;;
65831;SDS011;52593;42.648;23.332;2022-11-18T06:45:21;50.33;;;17.40;;
65831;SDS011;52593;42.648;23.332;2022-11-18T06:47:46;51.90;;;18.25;;
65831;SDS011;52593;42.648;23.332;2022-11-18T06:50:12;51.00;;;18.37;;
65831;SDS011;52593;42.648;23.332;2022-11-18T06:52:37;45.13;;;17.47;;
65831;SDS011;52593;42.648;23.332;2022-11-18T06:55:03;46.67;;;17.67;;
65831;SDS011;52593;42.648;23.332;2022-11-18T06:57:32;39.47;;;15.90;;
65831;SDS011;52593;42.648;23.332;2022-11-18T06:59:57;46.17;;;17.63;;
65831;SDS011;52593;42.648;23.332;2022-11-18T07:02:22;43.87;;;16.53;;
65831;SDS011;52593;42.648;23.332;2022-11-18T07:04:48;40.90;;;16.60;;
65831;SDS011;52593;42.648;23.332;2022-11-18T07:07:13;60.47;;;17.00;;
65831;SDS011;52593;42.648;23.332;2022-11-18T07:09:38;57.57;;;20.70;;
65831;SDS011;52593;42.648;23.332;2022-11-18T07:12:04;50.83;;;19.77;;
65831;SDS011;52593;42.648;23.332;2022-11-18T07:14:30;50.03;;;20.30;;
65831;SDS011;52593;42.648;23.332;2022-11-18T07:16:55;53.22;;;20.38;;
65831;SDS011;52593;42.648;23.332;2022-11-18T07:19:21;60.97;;;21.63;;
65831;SDS011;52593;42.648;23.332;2022-11-18T07:21:46;58.30;;;22.47;;
65831;SDS011;52593;42.648;23.332;2022-11-18T07:24:12;54.63;;;20.53;;
65831;SDS011;52593;42.648;23.332;2022-11-18T07:26:38;58.10;;;21.00;;
65831;SDS011;52593;42.648;23.332;2022-11-18T07:29:04;62.15;;;21.15;;
65831;SDS011;52593;42.648;23.332;2022-11-18T07:31:30;52.70;;;17.03;;
65831;SDS011;52593;42.648;23.332;2022-11-18T07:33:56;55.97;;;15.70;;
65831;SDS011;52593;42.648;23.332;2022-11-18T07:36:26;53.47;;;15.07;;
65831;SDS011;52593;42.648;23.332;2022-11-18T07:38:53;46.88;;;14.02;;
65831;SDS011;52593;42.648;23.332;2022-11-18T07:41:23;47.60;;;14.07;;
65831;SDS011;52593;42.648;23.332;2022-11-18T07:43:50;47.10;;;13.73;;
65831;SDS011;52593;42.648;23.332;2022-11-18T07:46:20;41.95;;;12.65;;
65831;SDS011;52593;42.648;23.332;2022-11-18T07:48:49;43.05;;;15.18;;
65831;SDS011;52593;42.648;23.332;2022-11-18T07:51:16;48.65;;;14.20;;
65831;SDS011;52593;42.648;23.332;2022-11-18T07:53:44;41.30;;;13.50;;
65831;SDS011;52593;42.648;23.332;2022-11-18T07:56:10;43.58;;;14.77;;
65831;SDS011;52593;42.648;23.332;2022-11-18T07:58:36;44.30;;;14.80;;
65831;SDS011;52593;42.648;23.332;2022-11-18T08:01:09;48.08;;;16.40;;
65831;SDS011;52593;42.648;23.332;2022-11-18T08:03:44;46.47;;;15.00;;
65831;SDS011;52593;42.648;23.332;2022-11-18T08:06:11;45.57;;;15.50;;
65831;SDS011;52593;42.648;23.332;2022-11-18T08:08:38;45.80;;;15.40;;
65831;SDS011;52593;42.648;23.332;2022-11-18T08:11:05;55.50;;;15.38;;
65831;SDS011;52593;42.648;23.332;2022-11-18T08:13:33;50.90;;;15.80;;
65831;SDS011;52593;42.648;23.332;2022-11-18T08:15:59;40.25;;;13.48;;
65831;SDS011;52593;42.648;23.332;2022-11-18T08:18:26;46.67;;;15.40;;
65831;SDS011;52593;42.648;23.332;2022-11-18T08:20:52;47.20;;;15.70;;
65831;SDS011;52593;42.648;23.332;2022-11-18T08:23:17;55.73;;;16.93;;
65831;SDS011;52593;42.648;23.332;2022-11-18T08:25:43;57.20;;;17.05;;
65831;SDS011;52593;42.648;23.332;2022-11-18T08:28:10;52.70;;;16.60;;
65831;SDS011;52593;42.648;23.332;2022-11-18T08:30:36;54.50;;;16.80;;
65831;SDS011;52593;42.648;23.332;2022-11-18T08:33:02;55.72;;;16.67;;
65831;SDS011;52593;42.648;23.332;2022-11-18T08:35:28;55.43;;;16.10;;
65831;SDS011;52593;42.648;23.332;2022-11-18T08:37:54;54.17;;;16.73;;
65831;SDS011;52593;42.648;23.332;2022-11-18T08:40:19;50.47;;;16.67;;
65831;SDS011;52593;42.648;23.332;2022-11-18T08:42:45;53.72;;;17.02;;
65831;SDS011;52593;42.648;23.332;2022-11-18T08:45:11;50.30;;;16.38;;
65831;SDS011;52593;42.648;23.332;2022-11-18T08:47:37;54.60;;;16.80;;
65831;SDS011;52593;42.648;23.332;2022-11-18T08:50:03;48.73;;;16.40;;
65831;SDS011;52593;42.648;23.332;2022-11-18T08:52:29;50.15;;;17.60;;
65831;SDS011;52593;42.648;23.332;2022-11-18T08:54:55;54.40;;;18.80;;
65831;SDS011;52593;42.648;23.332;2022-11-18T08:57:20;53.70;;;17.48;;
65831;SDS011;52593;42.648;23.332;2022-11-18T08:59:45;45.63;;;16.87;;
65831;SDS011;52593;42.648;23.332;2022-11-18T09:02:14;49.13;;;17.20;;
65831;SDS011;52593;42.648;23.332;2022-11-18T09:04:41;49.45;;;17.88;;
65831;SDS011;52593;42.648;23.332;2022-11-18T09:07:06;45.03;;;17.97;;
65831;SDS011;52593;42.648;23.332;2022-11-18T09:09:32;57.27;;;19.40;;
65831;SDS011;52593;42.648;23.332;2022-11-18T09:11:57;59.80;;;22.07;;
65831;SDS011;52593;42.648;23.332;2022-11-18T09:14:23;60.78;;;22.40;;
65831;SDS011;52593;42.648;23.332;2022-11-18T09:16:48;53.37;;;18.77;;
65831;SDS011;52593;42.648;23.332;2022-11-18T09:19:14;30.37;;;13.57;;
65831;SDS011;52593;42.648;23.332;2022-11-18T09:21:40;31.27;;;12.90;;
65831;SDS011;52593;42.648;23.332;2022-11-18T09:24:06;27.10;;;11.00;;
65831;SDS011;52593;42.648;23.332;2022-11-18T09:26:31;22.83;;;9.30;;
65831;SDS011;52593;42.648;23.332;2022-11-18T09:28:57;24.10;;;9.83;;
65831;SDS011;52593;42.648;23.332;2022-11-18T09:31:22;43.77;;;16.27;;
65831;SDS011;52593;42.648;23.332;2022-11-18T09:33:48;47.28;;;15.98;;
65831;SDS011;52593;42.648;23.332;2022-11-18T09:36:20;46.33;;;15.57;;
65831;SDS011;52593;42.648;23.332;2022-11-18T09:38:47;49.33;;;17.75;;
65831;SDS011;52593;42.648;23.332;2022-11-18T09:49:43;37.33;;;13.85;;
65831;SDS011;52593;42.648;23.332;2022-11-18T09:54:57;34.77;;;14.30;;
65831;SDS011;52593;42.648;23.332;2022-11-18T09:57:45;36.83;;;13.27;;
65831;SDS011;52593;42.648;23.332;2022-11-18T10:00:17;25.38;;;11.00;;
65831;SDS011;52593;42.648;23.332;2022-11-18T10:05:15;27.70;;;11.98;;
65831;SDS011;52593;42.648;23.332;2022-11-18T10:10:15;25.58;;;10.20;;
65831;SDS011;52593;42.648;23.332;2022-11-18T10:12:51;29.65;;;11.85;;
65831;SDS011;52593;42.648;23.332;2022-11-18T10:15:28;25.50;;;11.32;;
65831;SDS011;52593;42.648;23.332;2022-11-18T10:18:03;27.92;;;11.40;;
65831;SDS011;52593;42.648;23.332;2022-11-18T10:20:59;26.90;;;10.23;;
65831;SDS011;52593;42.648;23.332;2022-11-18T10:23:34;25.13;;;10.30;;
65831;SDS011;52593;42.648;23.332;2022-11-18T10:26:08;28.20;;;11.77;;
65831;SDS011;52593;42.648;23.332;2022-11-18T10:28:34;30.57;;;11.40;;
65831;SDS011;52593;42.648;23.332;2022-11-18T10:31:06;31.47;;;13.27;;
65831;SDS011;52593;42.648;23.332;2022-11-18T10:33:36;30.95;;;12.15;;
65831;SDS011;52593;42.648;23.332;2022-11-18T10:36:18;35.67;;;13.85;;
65831;SDS011;52593;42.648;23.332;2022-11-18T10:39:08;41.60;;;15.48;;
65831;SDS011;52593;42.648;23.332;2022-11-18T10:41:48;31.20;;;12.73;;
65831;SDS011;52593;42.648;23.332;2022-11-18T10:44:30;35.47;;;13.50;;
65831;SDS011;52593;42.648;23.332;2022-11-18T10:49:48;30.83;;;12.77;;
65831;SDS011;52593;42.648;23.332;2022-11-18T10:52:15;27.60;;;11.25;;
65831;SDS011;52593;42.648;23.332;2022-11-18T10:54:40;30.90;;;13.13;;
65831;SDS011;52593;42.648;23.332;2022-11-18T10:59:33;28.80;;;11.23;;
65831;SDS011;52593;42.648;23.332;2022-11-18T11:02:17;32.50;;;13.43;;
65831;SDS011;52593;42.648;23.332;2022-11-18T11:04:55;26.05;;;11.48;;
65831;SDS011;52593;42.648;23.332;2022-11-18T11:07:28;28.80;;;11.45;;
65831;SDS011;52593;42.648;23.332;2022-11-18T11:12:33;29.23;;;11.45;;
65831;SDS011;52593;42.648;23.332;2022-11-18T11:15:09;37.75;;;13.95;;
65831;SDS011;52593;42.648;23.332;2022-11-18T11:17:41;41.55;;;15.10;;
65831;SDS011;52593;42.648;23.332;2022-11-18T11:20:33;38.25;;;14.75;;
65831;SDS011;52593;42.648;23.332;2022-11-18T11:22:59;35.70;;;14.33;;
65831;SDS011;52593;42.648;23.332;2022-11-18T11:32:04;36.15;;;13.95;;
65831;SDS011;52593;42.648;23.332;2022-11-18T11:34:55;34.75;;;14.60;;
65831;SDS011;52593;42.648;23.332;2022-11-18T11:40:27;43.20;;;16.60;;
65831;SDS011;52593;42.648;23.332;2022-11-18T11:51:31;32.15;;;11.73;;
65831;SDS011;52593;42.648;23.332;2022-11-18T11:56:57;32.70;;;12.67;;
65831;SDS011;52593;42.648;23.332;2022-11-18T12:02:29;31.17;;;12.77;;
65831;SDS011;52593;42.648;23.332;2022-11-18T12:05:16;31.05;;;11.90;;
65831;SDS011;52593;42.648;23.332;2022-11-18T12:08:02;31.55;;;12.68;;
65831;SDS011;52593;42.648;23.332;2022-11-18T12:16:07;29.05;;;11.75;;
65831;SDS011;52593;42.648;23.332;2022-11-18T12:27:05;23.15;;;10.13;;
65831;SDS011;52593;42.648;23.332;2022-11-18T12:32:25;22.02;;;8.35;;
65831;SDS011;52593;42.648;23.332;2022-11-18T12:35:33;22.10;;;9.30;;
65831;SDS011;52593;42.648;23.332;2022-11-18T12:40:33;23.30;;;9.15;;
65831;SDS011;52593;42.648;23.332;2022-11-18T12:43:05;19.27;;;7.57;;
65831;SDS011;52593;42.648;23.332;2022-11-18T12:52:04;17.87;;;7.30;;
65831;SDS011;52593;42.648;23.332;2022-11-18T12:55:12;22.60;;;8.60;;
65831;SDS011;52593;42.648;23.332;2022-11-18T12:57:41;20.85;;;7.18;;
65831;SDS011;52593;42.648;23.332;2022-11-18T13:02:54;15.07;;;6.00;;
65831;SDS011;52593;42.648;23.332;2022-11-18T13:05:25;13.95;;;6.03;;
65831;SDS011;52593;42.648;23.332;2022-11-18T13:08:09;7.78;;;3.13;;
65831;SDS011;52593;42.648;23.332;2022-11-18T13:13:11;9.27;;;3.40;;
65831;SDS011;52593;42.648;23.332;2022-11-18T13:15:46;12.30;;;4.00;;
65831;SDS011;52593;42.648;23.332;2022-11-18T13:18:29;12.77;;;4.28;;
65831;SDS011;52593;42.648;23.332;2022-11-18T13:20:55;12.50;;;4.73;;
65831;SDS011;52593;42.648;23.332;2022-11-18T13:23:24;10.82;;;4.00;;
65831;SDS011;52593;42.648;23.332;2022-11-18T13:34:18;13.37;;;4.47;;
65831;SDS011;52593;42.648;23.332;2022-11-18T13:36:46;15.90;;;4.80;;
65831;SDS011;52593;42.648;23.332;2022-11-18T13:39:17;10.02;;;3.22;;
65831;SDS011;52593;42.648;23.332;2022-11-18T13:42:48;13.75;;;2.55;;
65831;SDS011;52593;42.648;23.332;2022-11-18T13:50:34;9.52;;;3.67;;
65831;SDS011;52593;42.648;23.332;2022-11-18T13:55:36;9.33;;;3.30;;
65831;SDS011;52593;42.648;23.332;2022-11-18T14:00:42;10.25;;;2.85;;
65831;SDS011;52593;42.648;23.332;2022-11-18T14:03:25;5.93;;;2.07;;
65831;SDS011;52593;42.648;23.332;2022-11-18T14:06:11;9.13;;;3.33;;
65831;SDS011;52593;42.648;23.332;2022-11-18T14:08:48;6.18;;;2.13;;
65831;SDS011;52593;42.648;23.332;2022-11-18T14:11:32;7.97;;;1.98;;
65831;SDS011;52593;42.648;23.332;2022-11-18T14:13:59;5.70;;;2.25;;
65831;SDS011;52593;42.648;23.332;2022-11-18T14:18:55;7.63;;;2.70;;
65831;SDS011;52593;42.648;23.332;2022-11-18T14:21:31;8.13;;;2.43;;
65831;SDS011;52593;42.648;23.332;2022-11-18T14:24:04;10.73;;;3.15;;
65831;SDS011;52593;42.648;23.332;2022-11-18T14:26:36;11.43;;;2.67;;
65831;SDS011;52593;42.648;23.332;2022-11-18T14:29:13;10.93;;;2.72;;
65831;SDS011;52593;42.648;23.332;2022-11-18T14:31:44;11.63;;;2.47;;
65831;SDS011;52593;42.648;23.332;2022-11-18T14:34:45;14.02;;;4.93;;
65831;SDS011;52593;42.648;23.332;2022-11-18T14:37:22;8.32;;;2.33;;
65831;SDS011;52593;42.648;23.332;2022-11-18T14:39:57;5.97;;;2.20;;
65831;SDS011;52593;42.648;23.332;2022-11-18T14:42:22;7.00;;;1.88;;
65831;SDS011;52593;42.648;23.332;2022-11-18T14:44:48;6.35;;;1.90;;
65831;SDS011;52593;42.648;23.332;2022-11-18T14:47:20;4.90;;;1.33;;
65831;SDS011;52593;42.648;23.332;2022-11-18T14:49:50;8.30;;;1.77;;
65831;SDS011;52593;42.648;23.332;2022-11-18T14:52:15;5.25;;;1.85;;
65831;SDS011;52593;42.648;23.332;2022-11-18T14:54:41;6.23;;;1.60;;
65831;SDS011;52593;42.648;23.332;2022-11-18T14:57:09;6.23;;;1.80;;
65831;SDS011;52593;42.648;23.332;2022-11-18T14:59:38;6.68;;;1.60;;
65831;SDS011;52593;42.648;23.332;2022-11-18T15:02:03;4.63;;;1.50;;
65831;SDS011;52593;42.648;23.332;2022-11-18T15:04:28;7.10;;;2.15;;
65831;SDS011;52593;42.648;23.332;2022-11-18T15:06:54;5.57;;;1.50;;
65831;SDS011;52593;42.648;23.332;2022-11-18T15:09:20;6.13;;;1.60;;
65831;SDS011;52593;42.648;23.332;2022-11-18T15:11:45;5.07;;;1.63;;
65831;SDS011;52593;42.648;23.332;2022-11-18T15:14:11;4.87;;;1.57;;
65831;SDS011;52593;42.648;23.332;2022-11-18T15:16:36;6.43;;;1.90;;
65831;SDS011;52593;42.648;23.332;2022-11-18T15:19:03;7.00;;;2.03;;
65831;SDS011;52593;42.648;23.332;2022-11-18T15:21:30;7.85;;;2.50;;
65831;SDS011;52593;42.648;23.332;2022-11-18T15:23:56;6.50;;;1.98;;
65831;SDS011;52593;42.648;23.332;2022-11-18T21:49:04;5.40;;;2.17;;
65831;SDS011;52593;42.648;23.332;2022-11-18T21:51:29;8.90;;;2.90;;
65831;SDS011;52593;42.648;23.332;2022-11-18T21:53:56;6.03;;;2.10;;
65831;SDS011;52593;42.648;23.332;2022-11-18T21:56:22;7.35;;;3.20;;
65831;SDS011;52593;42.648;23.332;2022-11-18T21:58:49;8.00;;;3.70;;
65831;SDS011;52593;42.648;23.332;2022-11-18T22:01:17;10.82;;;3.80;;
65831;SDS011;52593;42.648;23.332;2022-11-18T22:03:48;8.77;;;4.23;;
65831;SDS011;52593;42.648;23.332;2022-11-18T22:06:15;12.93;;;4.28;;
65831;SDS011;52593;42.648;23.332;2022-11-18T22:08:42;9.75;;;3.90;;
65831;SDS011;52593;42.648;23.332;2022-11-18T22:11:08;6.60;;;2.67;;
65831;SDS011;52593;42.648;23.332;2022-11-18T22:13:35;9.03;;;4.03;;
65831;SDS011;52593;42.648;23.332;2022-11-18T22:16:05;9.07;;;3.80;;
65831;SDS011;52593;42.648;23.332;2022-11-18T22:18:34;10.37;;;3.80;;
65831;SDS011;52593;42.648;23.332;2022-11-18T22:21:01;8.75;;;3.63;;
65831;SDS011;52593;42.648;23.332;2022-11-18T22:23:29;9.57;;;3.78;;
65831;SDS011;52593;42.648;23.332;2022-11-18T22:25:56;7.25;;;3.28;;
65831;SDS011;52593;42.648;23.332;2022-11-18T22:28:22;6.87;;;3.10;;
65831;SDS011;52593;42.648;23.332;2022-11-18T22:30:47;8.10;;;3.60;;
65831;SDS011;52593;42.648;23.332;2022-11-18T22:33:13;8.13;;;3.10;;
65831;SDS011;52593;42.648;23.332;2022-11-18T22:35:38;9.43;;;3.50;;
65831;SDS011;52593;42.648;23.332;2022-11-18T22:38:03;8.10;;;3.57;;
65831;SDS011;52593;42.648;23.332;2022-11-18T22:40:29;9.23;;;3.57;;
65831;SDS011;52593;42.648;23.332;2022-11-18T22:42:54;8.93;;;3.27;;
65831;SDS011;52593;42.648;23.332;2022-11-18T22:45:20;7.67;;;3.03;;
65831;SDS011;52593;42.648;23.332;2022-11-18T22:47:45;7.70;;;3.80;;
65831;SDS011;52593;42.648;23.332;2022-11-18T22:50:10;8.80;;;3.78;;
65831;SDS011;52593;42.648;23.332;2022-11-18T22:52:36;9.97;;;3.67;;
65831;SDS011;52593;42.648;23.332;2022-11-18T22:55:01;9.20;;;3.67;;
65831;SDS011;52593;42.648;23.332;2022-11-18T22:57:31;7.68;;;3.80;;
65831;SDS011;52593;42.648;23.332;2022-11-18T23:00:00;10.83;;;4.17;;
65831;SDS011;52593;42.648;23.332;2022-11-18T23:02:25;9.15;;;3.50;;
65831;SDS011;52593;42.648;23.332;2022-11-18T23:04:50;10.30;;;3.93;;